sensor_id;sensor_type;location;lat;lon;timestamp;temperature;humidity
802;DHT22;383;48.766;9.270;2022-08-19T00:00:35;23.30;74.80
802;DHT22;383;48.766;9.270;2022-08-19T00:03:02;23.30;74.50
802;DHT22;383;48.766;9.270;2022-08-19T00:05:30;23.30;74.80
802;DHT22;383;48.766;9.270;2022-08-19T00:07:57;23.30;75.00
802;DHT22;383;48.766;9.270;2022-08-19T00:10:24;23.30;74.80
802;DHT22;383;48.766;9.270;2022-08-19T00:12:51;23.30;75.20
802;DHT22;383;48.766;9.270;2022-08-19T00:15:19;23.30;75.00
802;DHT22;383;48.766;9.270;2022-08-19T00:17:47;23.30;74.90
802;DHT22;383;48.766;9.270;2022-08-19T00:20:18;23.30;74.50
802;DHT22;383;48.766;9.270;2022-08-19T00:22:47;23.30;75.30
802;DHT22;383;48.766;9.270;2022-08-19T00:25:15;23.30;75.40
802;DHT22;383;48.766;9.270;2022-08-19T00:27:42;23.20;75.70
802;DHT22;383;48.766;9.270;2022-08-19T00:30:09;23.20;75.60
802;DHT22;383;48.766;9.270;2022-08-19T00:32:37;23.20;76.00
802;DHT22;383;48.766;9.270;2022-08-19T00:35:04;23.20;75.80
802;DHT22;383;48.766;9.270;2022-08-19T00:37:31;23.20;76.60
802;DHT22;383;48.766;9.270;2022-08-19T00:40:02;23.20;75.80
802;DHT22;383;48.766;9.270;2022-08-19T00:42:31;23.10;76.00
802;DHT22;383;48.766;9.270;2022-08-19T00:44:58;23.10;76.10
802;DHT22;383;48.766;9.270;2022-08-19T00:47:25;23.10;76.30
802;DHT22;383;48.766;9.270;2022-08-19T00:49:55;23.10;76.20
802;DHT22;383;48.766;9.270;2022-08-19T00:52:26;23.10;76.30
802;DHT22;383;48.766;9.270;2022-08-19T00:54:55;23.00;76.30
802;DHT22;383;48.766;9.270;2022-08-19T00:57:27;23.00;76.30
802;DHT22;383;48.766;9.270;2022-08-19T00:59:56;23.10;76.30
802;DHT22;383;48.766;9.270;2022-08-19T01:02:25;23.00;76.30
802;DHT22;383;48.766;9.270;2022-08-19T01:04:53;23.10;76.30
802;DHT22;383;48.766;9.270;2022-08-19T01:07:20;23.10;76.10
802;DHT22;383;48.766;9.270;2022-08-19T01:09:47;23.10;76.10
802;DHT22;383;48.766;9.270;2022-08-19T01:12:14;23.00;76.10
802;DHT22;383;48.766;9.270;2022-08-19T01:14:42;23.00;76.30
802;DHT22;383;48.766;9.270;2022-08-19T01:17:10;23.00;76.30
802;DHT22;383;48.766;9.270;2022-08-19T01:19:39;22.90;76.30
802;DHT22;383;48.766;9.270;2022-08-19T01:22:12;22.90;77.10
802;DHT22;383;48.766;9.270;2022-08-19T01:24:42;22.90;77.40
802;DHT22;383;48.766;9.270;2022-08-19T01:27:09;22.90;77.40
802;DHT22;383;48.766;9.270;2022-08-19T01:29:39;22.90;76.70
802;DHT22;383;48.766;9.270;2022-08-19T01:32:07;22.90;77.00
802;DHT22;383;48.766;9.270;2022-08-19T01:34:35;22.90;77.00
802;DHT22;383;48.766;9.270;2022-08-19T01:37:06;22.90;76.70
802;DHT22;383;48.766;9.270;2022-08-19T01:39:37;23.00;76.70
802;DHT22;383;48.766;9.270;2022-08-19T01:42:06;23.00;76.70
802;DHT22;383;48.766;9.270;2022-08-19T01:44:36;23.00;76.70
802;DHT22;383;48.766;9.270;2022-08-19T01:47:03;23.00;76.60
802;DHT22;383;48.766;9.270;2022-08-19T01:49:30;23.00;76.30
802;DHT22;383;48.766;9.270;2022-08-19T01:51:59;22.90;76.70
802;DHT22;383;48.766;9.270;2022-08-19T01:54:27;23.00;76.70
802;DHT22;383;48.766;9.270;2022-08-19T01:56:58;22.90;76.70
802;DHT22;383;48.766;9.270;2022-08-19T01:59:27;22.90;76.70
802;DHT22;383;48.766;9.270;2022-08-19T02:01:54;22.80;77.10
802;DHT22;383;48.766;9.270;2022-08-19T02:04:20;22.80;77.40
802;DHT22;383;48.766;9.270;2022-08-19T02:06:48;22.90;76.70
802;DHT22;383;48.766;9.270;2022-08-19T02:09:15;22.90;77.10
802;DHT22;383;48.766;9.270;2022-08-19T02:11:42;22.80;77.10
802;DHT22;383;48.766;9.270;2022-08-19T02:14:09;22.80;77.40
802;DHT22;383;48.766;9.270;2022-08-19T02:16:37;22.80;77.80
802;DHT22;383;48.766;9.270;2022-08-19T02:19:06;22.80;77.50
802;DHT22;383;48.766;9.270;2022-08-19T02:21:33;22.80;77.80
802;DHT22;383;48.766;9.270;2022-08-19T02:24:00;22.70;78.10
802;DHT22;383;48.766;9.270;2022-08-19T02:26:27;22.70;78.20
802;DHT22;383;48.766;9.270;2022-08-19T02:28:54;22.70;78.50
802;DHT22;383;48.766;9.270;2022-08-19T02:31:24;22.70;78.30
802;DHT22;383;48.766;9.270;2022-08-19T02:33:52;22.70;78.60
802;DHT22;383;48.766;9.270;2022-08-19T02:36:19;22.60;78.60
802;DHT22;383;48.766;9.270;2022-08-19T02:38:46;22.60;78.90
802;DHT22;383;48.766;9.270;2022-08-19T02:41:15;22.60;79.00
802;DHT22;383;48.766;9.270;2022-08-19T02:43:42;22.60;79.00
802;DHT22;383;48.766;9.270;2022-08-19T02:46:14;22.60;79.00
802;DHT22;383;48.766;9.270;2022-08-19T02:48:42;22.50;79.30
802;DHT22;383;48.766;9.270;2022-08-19T02:51:15;22.50;79.70
802;DHT22;383;48.766;9.270;2022-08-19T02:53:42;22.50;79.70
802;DHT22;383;48.766;9.270;2022-08-19T02:56:09;22.50;79.80
802;DHT22;383;48.766;9.270;2022-08-19T02:58:36;22.40;80.30
802;DHT22;383;48.766;9.270;2022-08-19T03:01:03;22.40;80.60
802;DHT22;383;48.766;9.270;2022-08-19T03:03:30;22.40;80.40
802;DHT22;383;48.766;9.270;2022-08-19T03:06:05;22.30;80.60
802;DHT22;383;48.766;9.270;2022-08-19T03:08:34;22.30;81.00
802;DHT22;383;48.766;9.270;2022-08-19T03:11:00;22.20;81.00
802;DHT22;383;48.766;9.270;2022-08-19T03:13:27;22.20;81.00
802;DHT22;383;48.766;9.270;2022-08-19T03:15:54;22.20;81.00
802;DHT22;383;48.766;9.270;2022-08-19T03:18:21;22.20;81.20
802;DHT22;383;48.766;9.270;2022-08-19T03:20:49;22.20;81.10
802;DHT22;383;48.766;9.270;2022-08-19T03:23:18;22.20;81.00
802;DHT22;383;48.766;9.270;2022-08-19T03:25:48;22.20;81.20
802;DHT22;383;48.766;9.270;2022-08-19T03:28:15;22.10;81.40
802;DHT22;383;48.766;9.270;2022-08-19T03:30:43;22.10;81.60
802;DHT22;383;48.766;9.270;2022-08-19T03:33:22;22.10;81.90
802;DHT22;383;48.766;9.270;2022-08-19T03:36:00;22.00;82.00
802;DHT22;383;48.766;9.270;2022-08-19T03:38:27;22.10;81.90
802;DHT22;383;48.766;9.270;2022-08-19T03:40:55;22.10;81.90
802;DHT22;383;48.766;9.270;2022-08-19T03:43:22;22.10;81.40
802;DHT22;383;48.766;9.270;2022-08-19T03:45:48;22.10;81.40
802;DHT22;383;48.766;9.270;2022-08-19T03:48:16;22.10;81.90
802;DHT22;383;48.766;9.270;2022-08-19T03:50:43;22.10;81.50
802;DHT22;383;48.766;9.270;2022-08-19T03:53:10;22.10;81.50
802;DHT22;383;48.766;9.270;2022-08-19T03:55:39;22.10;81.60
802;DHT22;383;48.766;9.270;2022-08-19T03:58:07;22.00;81.80
802;DHT22;383;48.766;9.270;2022-08-19T04:00:36;22.00;81.90
802;DHT22;383;48.766;9.270;2022-08-19T04:03:03;22.00;82.00
802;DHT22;383;48.766;9.270;2022-08-19T04:05:50;22.00;82.20
802;DHT22;383;48.766;9.270;2022-08-19T04:08:17;22.00;81.90
802;DHT22;383;48.766;9.270;2022-08-19T04:10:45;22.00;82.00
802;DHT22;383;48.766;9.270;2022-08-19T04:13:14;22.00;82.20
802;DHT22;383;48.766;9.270;2022-08-19T04:15:41;21.90;82.30
802;DHT22;383;48.766;9.270;2022-08-19T04:18:08;22.00;82.20
802;DHT22;383;48.766;9.270;2022-08-19T04:20:39;21.90;82.00
802;DHT22;383;48.766;9.270;2022-08-19T04:23:06;21.90;82.20
802;DHT22;383;48.766;9.270;2022-08-19T04:25:36;21.90;82.20
802;DHT22;383;48.766;9.270;2022-08-19T04:28:03;22.00;82.00
802;DHT22;383;48.766;9.270;2022-08-19T04:30:37;22.00;82.00
802;DHT22;383;48.766;9.270;2022-08-19T04:35:35;22.00;81.60
802;DHT22;383;48.766;9.270;2022-08-19T04:38:01;21.90;82.30
802;DHT22;383;48.766;9.270;2022-08-19T04:40:28;21.90;82.00
802;DHT22;383;48.766;9.270;2022-08-19T04:43:12;21.90;82.30
802;DHT22;383;48.766;9.270;2022-08-19T04:45:41;21.90;82.20
802;DHT22;383;48.766;9.270;2022-08-19T04:48:08;22.00;82.00
802;DHT22;383;48.766;9.270;2022-08-19T04:50:35;21.90;82.30
802;DHT22;383;48.766;9.270;2022-08-19T04:53:02;21.90;82.20
802;DHT22;383;48.766;9.270;2022-08-19T04:55:30;21.90;82.30
802;DHT22;383;48.766;9.270;2022-08-19T04:57:56;21.90;82.00
802;DHT22;383;48.766;9.270;2022-08-19T05:00:23;21.90;81.90
802;DHT22;383;48.766;9.270;2022-08-19T05:02:51;22.00;82.00
802;DHT22;383;48.766;9.270;2022-08-19T05:05:18;21.90;81.90
802;DHT22;383;48.766;9.270;2022-08-19T05:07:45;21.90;82.20
802;DHT22;383;48.766;9.270;2022-08-19T05:10:12;21.90;82.00
802;DHT22;383;48.766;9.270;2022-08-19T05:12:39;22.00;81.90
802;DHT22;383;48.766;9.270;2022-08-19T05:15:06;21.90;81.90
802;DHT22;383;48.766;9.270;2022-08-19T05:17:34;21.90;82.20
802;DHT22;383;48.766;9.270;2022-08-19T05:20:03;21.90;82.30
802;DHT22;383;48.766;9.270;2022-08-19T05:22:47;21.90;82.30
802;DHT22;383;48.766;9.270;2022-08-19T05:25:16;22.00;81.90
802;DHT22;383;48.766;9.270;2022-08-19T05:27:44;22.00;81.80
802;DHT22;383;48.766;9.270;2022-08-19T05:30:12;22.10;81.60
802;DHT22;383;48.766;9.270;2022-08-19T05:32:39;22.10;81.60
802;DHT22;383;48.766;9.270;2022-08-19T05:35:08;22.10;81.80
802;DHT22;383;48.766;9.270;2022-08-19T05:37:37;22.10;81.90
802;DHT22;383;48.766;9.270;2022-08-19T05:40:06;22.00;82.00
802;DHT22;383;48.766;9.270;2022-08-19T05:42:33;22.00;81.80
802;DHT22;383;48.766;9.270;2022-08-19T05:45:00;22.00;81.60
802;DHT22;383;48.766;9.270;2022-08-19T05:47:27;22.10;81.60
802;DHT22;383;48.766;9.270;2022-08-19T05:49:54;22.10;81.50
802;DHT22;383;48.766;9.270;2022-08-19T05:52:22;22.10;81.60
802;DHT22;383;48.766;9.270;2022-08-19T05:54:48;22.00;81.80
802;DHT22;383;48.766;9.270;2022-08-19T05:57:17;22.00;81.80
802;DHT22;383;48.766;9.270;2022-08-19T05:59:44;22.10;81.80
802;DHT22;383;48.766;9.270;2022-08-19T06:02:11;22.10;82.00
802;DHT22;383;48.766;9.270;2022-08-19T06:04:38;22.10;83.00
802;DHT22;383;48.766;9.270;2022-08-19T06:07:08;22.10;83.70
802;DHT22;383;48.766;9.270;2022-08-19T06:09:36;22.00;85.60
802;DHT22;383;48.766;9.270;2022-08-19T06:12:03;21.90;85.70
802;DHT22;383;48.766;9.270;2022-08-19T06:14:32;21.80;86.80
802;DHT22;383;48.766;9.270;2022-08-19T06:17:00;21.60;88.80
802;DHT22;383;48.766;9.270;2022-08-19T06:19:28;21.40;88.90
802;DHT22;383;48.766;9.270;2022-08-19T06:21:56;21.20;90.10
802;DHT22;383;48.766;9.270;2022-08-19T06:24:24;21.10;90.60
802;DHT22;383;48.766;9.270;2022-08-19T06:26:54;21.00;90.10
802;DHT22;383;48.766;9.270;2022-08-19T06:29:23;20.80;91.20
802;DHT22;383;48.766;9.270;2022-08-19T06:31:52;20.80;92.40
802;DHT22;383;48.766;9.270;2022-08-19T06:34:19;20.70;92.50
802;DHT22;383;48.766;9.270;2022-08-19T06:36:48;20.70;92.40
802;DHT22;383;48.766;9.270;2022-08-19T06:39:17;20.60;92.70
802;DHT22;383;48.766;9.270;2022-08-19T06:41:45;20.60;92.90
802;DHT22;383;48.766;9.270;2022-08-19T06:44:14;20.60;93.30
802;DHT22;383;48.766;9.270;2022-08-19T06:46:42;20.60;92.70
802;DHT22;383;48.766;9.270;2022-08-19T06:49:08;20.70;92.20
802;DHT22;383;48.766;9.270;2022-08-19T06:51:40;20.80;92.40
802;DHT22;383;48.766;9.270;2022-08-19T06:54:08;20.90;91.80
802;DHT22;383;48.766;9.270;2022-08-19T06:56:35;20.90;91.70
802;DHT22;383;48.766;9.270;2022-08-19T06:59:03;21.00;91.50
802;DHT22;383;48.766;9.270;2022-08-19T07:01:34;21.10;90.70
802;DHT22;383;48.766;9.270;2022-08-19T07:04:03;21.10;90.50
802;DHT22;383;48.766;9.270;2022-08-19T07:06:30;21.10;90.80
802;DHT22;383;48.766;9.270;2022-08-19T07:08:57;21.10;91.20
802;DHT22;383;48.766;9.270;2022-08-19T07:11:25;21.20;90.50
802;DHT22;383;48.766;9.270;2022-08-19T07:13:51;21.30;90.30
802;DHT22;383;48.766;9.270;2022-08-19T07:16:19;21.30;89.80
802;DHT22;383;48.766;9.270;2022-08-19T07:18:48;21.40;90.30
802;DHT22;383;48.766;9.270;2022-08-19T07:21:16;21.40;90.80
802;DHT22;383;48.766;9.270;2022-08-19T07:23:43;21.40;90.60
802;DHT22;383;48.766;9.270;2022-08-19T07:26:13;21.30;91.70
802;DHT22;383;48.766;9.270;2022-08-19T07:28:41;21.20;92.30
802;DHT22;383;48.766;9.270;2022-08-19T07:31:10;21.10;92.10
802;DHT22;383;48.766;9.270;2022-08-19T07:33:38;21.10;92.60
802;DHT22;383;48.766;9.270;2022-08-19T07:36:07;21.00;93.60
802;DHT22;383;48.766;9.270;2022-08-19T07:38:37;21.00;93.80
802;DHT22;383;48.766;9.270;2022-08-19T07:41:05;20.90;94.00
802;DHT22;383;48.766;9.270;2022-08-19T07:43:31;20.90;94.50
802;DHT22;383;48.766;9.270;2022-08-19T07:45:58;20.80;94.90
802;DHT22;383;48.766;9.270;2022-08-19T07:48:27;20.70;94.40
802;DHT22;383;48.766;9.270;2022-08-19T07:50:56;20.70;94.60
802;DHT22;383;48.766;9.270;2022-08-19T07:53:26;20.70;94.60
802;DHT22;383;48.766;9.270;2022-08-19T07:55:52;20.70;95.40
802;DHT22;383;48.766;9.270;2022-08-19T07:58:21;20.60;94.30
802;DHT22;383;48.766;9.270;2022-08-19T08:00:50;20.60;94.70
802;DHT22;383;48.766;9.270;2022-08-19T08:03:19;20.60;94.60
802;DHT22;383;48.766;9.270;2022-08-19T08:05:46;20.50;95.60
802;DHT22;383;48.766;9.270;2022-08-19T08:08:31;20.50;95.50
802;DHT22;383;48.766;9.270;2022-08-19T08:11:13;20.40;95.80
802;DHT22;383;48.766;9.270;2022-08-19T08:13:40;20.40;95.40
802;DHT22;383;48.766;9.270;2022-08-19T08:16:07;20.40;95.40
802;DHT22;383;48.766;9.270;2022-08-19T08:18:34;20.40;95.50
802;DHT22;383;48.766;9.270;2022-08-19T08:21:06;20.40;95.90
802;DHT22;383;48.766;9.270;2022-08-19T08:23:35;20.40;96.20
802;DHT22;383;48.766;9.270;2022-08-19T08:26:02;20.40;95.90
802;DHT22;383;48.766;9.270;2022-08-19T08:28:30;20.50;95.70
802;DHT22;383;48.766;9.270;2022-08-19T08:30:58;20.50;95.20
802;DHT22;383;48.766;9.270;2022-08-19T08:33:26;20.60;94.80
802;DHT22;383;48.766;9.270;2022-08-19T08:35:54;20.50;95.50
802;DHT22;383;48.766;9.270;2022-08-19T08:38:20;20.50;95.80
802;DHT22;383;48.766;9.270;2022-08-19T08:40:50;20.50;95.40
802;DHT22;383;48.766;9.270;2022-08-19T08:43:23;20.50;96.10
802;DHT22;383;48.766;9.270;2022-08-19T08:45:55;20.50;96.40
802;DHT22;383;48.766;9.270;2022-08-19T08:48:27;20.60;96.30
802;DHT22;383;48.766;9.270;2022-08-19T08:50:57;20.80;96.00
802;DHT22;383;48.766;9.270;2022-08-19T08:53:25;20.90;95.90
802;DHT22;383;48.766;9.270;2022-08-19T08:55:54;21.10;96.00
802;DHT22;383;48.766;9.270;2022-08-19T08:58:25;21.20;95.30
802;DHT22;383;48.766;9.270;2022-08-19T09:00:54;21.30;94.70
802;DHT22;383;48.766;9.270;2022-08-19T09:03:24;21.40;94.80
802;DHT22;383;48.766;9.270;2022-08-19T09:05:58;21.40;95.20
802;DHT22;383;48.766;9.270;2022-08-19T09:08:33;21.60;93.90
802;DHT22;383;48.766;9.270;2022-08-19T09:11:08;21.60;93.90
802;DHT22;383;48.766;9.270;2022-08-19T09:13:42;21.60;93.70
802;DHT22;383;48.766;9.270;2022-08-19T09:16:14;21.60;93.40
802;DHT22;383;48.766;9.270;2022-08-19T09:18:43;21.60;94.40
802;DHT22;383;48.766;9.270;2022-08-19T09:21:11;21.60;94.20
802;DHT22;383;48.766;9.270;2022-08-19T09:23:38;21.60;93.80
802;DHT22;383;48.766;9.270;2022-08-19T09:26:11;21.60;94.20
802;DHT22;383;48.766;9.270;2022-08-19T09:28:39;21.50;93.50
802;DHT22;383;48.766;9.270;2022-08-19T09:31:07;21.50;94.10
802;DHT22;383;48.766;9.270;2022-08-19T09:33:34;21.50;94.10
802;DHT22;383;48.766;9.270;2022-08-19T09:36:04;21.50;94.00
802;DHT22;383;48.766;9.270;2022-08-19T09:38:31;21.60;93.40
802;DHT22;383;48.766;9.270;2022-08-19T09:41:02;21.60;92.70
802;DHT22;383;48.766;9.270;2022-08-19T09:43:31;21.60;93.50
802;DHT22;383;48.766;9.270;2022-08-19T09:45:58;21.60;92.80
802;DHT22;383;48.766;9.270;2022-08-19T09:48:25;21.60;93.10
802;DHT22;383;48.766;9.270;2022-08-19T09:50:52;21.60;93.20
802;DHT22;383;48.766;9.270;2022-08-19T09:53:19;21.60;93.90
802;DHT22;383;48.766;9.270;2022-08-19T09:55:48;21.60;93.70
802;DHT22;383;48.766;9.270;2022-08-19T09:58:15;21.60;94.10
802;DHT22;383;48.766;9.270;2022-08-19T10:00:43;21.50;94.00
802;DHT22;383;48.766;9.270;2022-08-19T10:03:11;21.40;94.80
802;DHT22;383;48.766;9.270;2022-08-19T10:05:38;21.40;95.50
802;DHT22;383;48.766;9.270;2022-08-19T10:08:18;21.40;95.90
802;DHT22;383;48.766;9.270;2022-08-19T10:10:46;21.30;95.80
802;DHT22;383;48.766;9.270;2022-08-19T10:13:14;21.20;96.70
802;DHT22;383;48.766;9.270;2022-08-19T10:15:43;21.20;96.50
802;DHT22;383;48.766;9.270;2022-08-19T10:18:10;21.10;97.50
802;DHT22;383;48.766;9.270;2022-08-19T10:20:37;21.20;98.00
802;DHT22;383;48.766;9.270;2022-08-19T10:23:04;21.10;98.50
802;DHT22;383;48.766;9.270;2022-08-19T10:25:32;21.10;98.40
802;DHT22;383;48.766;9.270;2022-08-19T10:27:59;21.10;98.80
802;DHT22;383;48.766;9.270;2022-08-19T10:30:26;21.10;99.10
802;DHT22;383;48.766;9.270;2022-08-19T10:32:54;21.10;99.20
802;DHT22;383;48.766;9.270;2022-08-19T10:35:21;21.10;99.00
802;DHT22;383;48.766;9.270;2022-08-19T10:37:48;21.10;98.90
802;DHT22;383;48.766;9.270;2022-08-19T10:40:15;21.10;99.20
802;DHT22;383;48.766;9.270;2022-08-19T10:42:41;21.20;99.90
802;DHT22;383;48.766;9.270;2022-08-19T10:45:09;21.20;99.90
802;DHT22;383;48.766;9.270;2022-08-19T10:47:36;21.30;99.90
802;DHT22;383;48.766;9.270;2022-08-19T10:50:05;21.40;99.90
802;DHT22;383;48.766;9.270;2022-08-19T10:52:50;21.40;99.90
802;DHT22;383;48.766;9.270;2022-08-19T10:55:18;21.50;99.90
802;DHT22;383;48.766;9.270;2022-08-19T10:58:03;21.60;99.90
802;DHT22;383;48.766;9.270;2022-08-19T11:00:30;21.70;99.90
802;DHT22;383;48.766;9.270;2022-08-19T11:02:57;21.70;99.90
802;DHT22;383;48.766;9.270;2022-08-19T11:05:25;21.70;99.90
802;DHT22;383;48.766;9.270;2022-08-19T11:07:52;21.70;99.90
802;DHT22;383;48.766;9.270;2022-08-19T11:10:19;21.70;99.90
802;DHT22;383;48.766;9.270;2022-08-19T11:12:46;21.70;99.90
802;DHT22;383;48.766;9.270;2022-08-19T11:15:13;21.70;99.90
802;DHT22;383;48.766;9.270;2022-08-19T11:17:40;21.70;99.30
802;DHT22;383;48.766;9.270;2022-08-19T11:20:10;21.70;99.10
802;DHT22;383;48.766;9.270;2022-08-19T11:22:39;21.70;99.10
802;DHT22;383;48.766;9.270;2022-08-19T11:25:07;21.70;98.70
802;DHT22;383;48.766;9.270;2022-08-19T11:27:38;21.70;98.90
802;DHT22;383;48.766;9.270;2022-08-19T11:30:08;21.70;99.60
802;DHT22;383;48.766;9.270;2022-08-19T11:32:36;21.70;99.90
802;DHT22;383;48.766;9.270;2022-08-19T11:35:03;21.80;99.90
802;DHT22;383;48.766;9.270;2022-08-19T11:37:30;21.80;99.90
802;DHT22;383;48.766;9.270;2022-08-19T11:39:58;21.70;99.90
802;DHT22;383;48.766;9.270;2022-08-19T11:42:25;21.70;99.30
802;DHT22;383;48.766;9.270;2022-08-19T11:45:10;21.70;99.90
802;DHT22;383;48.766;9.270;2022-08-19T11:47:37;21.70;99.90
802;DHT22;383;48.766;9.270;2022-08-19T11:50:05;21.70;99.90
802;DHT22;383;48.766;9.270;2022-08-19T11:52:32;21.60;99.90
802;DHT22;383;48.766;9.270;2022-08-19T11:55:00;21.60;99.90
802;DHT22;383;48.766;9.270;2022-08-19T11:57:27;21.60;99.90
802;DHT22;383;48.766;9.270;2022-08-19T11:59:54;21.70;99.90
802;DHT22;383;48.766;9.270;2022-08-19T12:02:21;21.80;99.90
802;DHT22;383;48.766;9.270;2022-08-19T12:04:48;21.80;99.90
802;DHT22;383;48.766;9.270;2022-08-19T12:07:15;21.80;99.90
802;DHT22;383;48.766;9.270;2022-08-19T12:09:42;21.80;99.90
802;DHT22;383;48.766;9.270;2022-08-19T12:12:11;21.80;99.90
802;DHT22;383;48.766;9.270;2022-08-19T12:14:38;21.80;99.60
802;DHT22;383;48.766;9.270;2022-08-19T12:17:05;21.80;99.80
802;DHT22;383;48.766;9.270;2022-08-19T12:19:35;21.90;99.80
802;DHT22;383;48.766;9.270;2022-08-19T12:22:02;21.90;99.90
802;DHT22;383;48.766;9.270;2022-08-19T12:24:31;22.00;98.90
802;DHT22;383;48.766;9.270;2022-08-19T12:26:58;22.00;99.30
802;DHT22;383;48.766;9.270;2022-08-19T12:29:28;21.80;99.50
802;DHT22;383;48.766;9.270;2022-08-19T12:31:56;21.70;99.90
802;DHT22;383;48.766;9.270;2022-08-19T12:34:27;21.70;99.90
802;DHT22;383;48.766;9.270;2022-08-19T12:36:55;21.70;99.90
802;DHT22;383;48.766;9.270;2022-08-19T12:39:23;21.70;99.90
802;DHT22;383;48.766;9.270;2022-08-19T12:41:50;21.70;99.90
802;DHT22;383;48.766;9.270;2022-08-19T12:44:17;21.80;99.90
802;DHT22;383;48.766;9.270;2022-08-19T12:46:46;21.80;99.90
802;DHT22;383;48.766;9.270;2022-08-19T12:49:14;21.80;99.90
802;DHT22;383;48.766;9.270;2022-08-19T12:51:41;21.80;99.90
802;DHT22;383;48.766;9.270;2022-08-19T12:54:09;21.80;99.90
802;DHT22;383;48.766;9.270;2022-08-19T12:56:36;21.80;99.90
802;DHT22;383;48.766;9.270;2022-08-19T12:59:03;21.90;99.90
802;DHT22;383;48.766;9.270;2022-08-19T13:01:30;21.90;99.90
802;DHT22;383;48.766;9.270;2022-08-19T13:03:59;22.00;99.80
802;DHT22;383;48.766;9.270;2022-08-19T13:06:26;22.00;99.70
802;DHT22;383;48.766;9.270;2022-08-19T13:08:53;22.10;99.60
802;DHT22;383;48.766;9.270;2022-08-19T13:11:21;22.20;99.00
802;DHT22;383;48.766;9.270;2022-08-19T13:13:50;22.20;98.70
802;DHT22;383;48.766;9.270;2022-08-19T13:16:18;22.20;98.40
802;DHT22;383;48.766;9.270;2022-08-19T13:18:47;22.10;98.30
802;DHT22;383;48.766;9.270;2022-08-19T13:21:15;22.10;98.50
802;DHT22;383;48.766;9.270;2022-08-19T13:23:45;22.00;98.70
802;DHT22;383;48.766;9.270;2022-08-19T13:26:12;22.00;98.90
802;DHT22;383;48.766;9.270;2022-08-19T13:28:39;22.00;98.60
802;DHT22;383;48.766;9.270;2022-08-19T13:31:25;21.90;98.30
802;DHT22;383;48.766;9.270;2022-08-19T13:34:10;21.80;98.90
802;DHT22;383;48.766;9.270;2022-08-19T13:36:38;21.70;99.10
802;DHT22;383;48.766;9.270;2022-08-19T13:39:07;21.80;98.90
802;DHT22;383;48.766;9.270;2022-08-19T13:41:34;21.70;99.30
802;DHT22;383;48.766;9.270;2022-08-19T13:44:01;21.70;98.90
802;DHT22;383;48.766;9.270;2022-08-19T13:46:29;21.60;98.90
802;DHT22;383;48.766;9.270;2022-08-19T13:48:56;21.50;99.20
802;DHT22;383;48.766;9.270;2022-08-19T13:51:23;21.40;99.00
802;DHT22;383;48.766;9.270;2022-08-19T13:53:51;21.40;99.70
802;DHT22;383;48.766;9.270;2022-08-19T13:56:19;21.30;99.30
802;DHT22;383;48.766;9.270;2022-08-19T13:58:46;21.30;99.90
802;DHT22;383;48.766;9.270;2022-08-19T14:01:19;21.30;99.90
802;DHT22;383;48.766;9.270;2022-08-19T14:03:46;21.30;99.90
802;DHT22;383;48.766;9.270;2022-08-19T14:06:13;21.30;99.90
802;DHT22;383;48.766;9.270;2022-08-19T14:08:39;21.30;99.90
802;DHT22;383;48.766;9.270;2022-08-19T14:11:08;21.30;99.90
802;DHT22;383;48.766;9.270;2022-08-19T14:13:35;21.30;99.90
802;DHT22;383;48.766;9.270;2022-08-19T14:16:07;21.30;99.90
802;DHT22;383;48.766;9.270;2022-08-19T14:18:34;21.30;99.90
802;DHT22;383;48.766;9.270;2022-08-19T14:21:04;21.20;99.90
802;DHT22;383;48.766;9.270;2022-08-19T14:23:31;21.20;99.90
802;DHT22;383;48.766;9.270;2022-08-19T14:26:06;21.20;99.90
802;DHT22;383;48.766;9.270;2022-08-19T14:28:34;21.20;99.90
802;DHT22;383;48.766;9.270;2022-08-19T14:31:00;21.20;99.90
802;DHT22;383;48.766;9.270;2022-08-19T14:33:27;21.20;99.90
802;DHT22;383;48.766;9.270;2022-08-19T14:35:54;21.20;99.90
802;DHT22;383;48.766;9.270;2022-08-19T14:38:20;21.30;99.90
802;DHT22;383;48.766;9.270;2022-08-19T14:40:47;21.30;99.90
802;DHT22;383;48.766;9.270;2022-08-19T14:43:14;21.40;99.90
802;DHT22;383;48.766;9.270;2022-08-19T14:45:44;21.40;99.90
802;DHT22;383;48.766;9.270;2022-08-19T14:48:11;21.50;99.90
802;DHT22;383;48.766;9.270;2022-08-19T14:50:38;21.60;99.60
802;DHT22;383;48.766;9.270;2022-08-19T14:53:07;21.50;99.50
802;DHT22;383;48.766;9.270;2022-08-19T14:55:34;21.50;99.90
802;DHT22;383;48.766;9.270;2022-08-19T14:58:01;21.60;99.50
802;DHT22;383;48.766;9.270;2022-08-19T15:00:28;21.60;99.30
802;DHT22;383;48.766;9.270;2022-08-19T15:02:56;21.70;99.00
802;DHT22;383;48.766;9.270;2022-08-19T15:05:24;21.70;99.00
802;DHT22;383;48.766;9.270;2022-08-19T15:07:52;21.70;98.80
802;DHT22;383;48.766;9.270;2022-08-19T15:10:20;21.70;98.50
802;DHT22;383;48.766;9.270;2022-08-19T15:12:47;21.70;98.60
802;DHT22;383;48.766;9.270;2022-08-19T15:15:15;21.70;98.70
802;DHT22;383;48.766;9.270;2022-08-19T15:17:43;21.70;98.20
802;DHT22;383;48.766;9.270;2022-08-19T15:20:13;21.70;97.80
802;DHT22;383;48.766;9.270;2022-08-19T15:22:40;21.70;98.30
802;DHT22;383;48.766;9.270;2022-08-19T15:25:09;21.80;97.70
802;DHT22;383;48.766;9.270;2022-08-19T15:27:36;22.00;97.60
802;DHT22;383;48.766;9.270;2022-08-19T15:30:05;22.10;97.50
802;DHT22;383;48.766;9.270;2022-08-19T15:32:33;22.20;97.40
802;DHT22;383;48.766;9.270;2022-08-19T15:35:00;22.40;97.00
802;DHT22;383;48.766;9.270;2022-08-19T15:37:29;22.50;96.70
802;DHT22;383;48.766;9.270;2022-08-19T15:39:56;22.60;96.10
802;DHT22;383;48.766;9.270;2022-08-19T15:42:23;22.70;95.60
802;DHT22;383;48.766;9.270;2022-08-19T15:44:51;22.70;94.40
802;DHT22;383;48.766;9.270;2022-08-19T15:47:18;22.70;94.40
802;DHT22;383;48.766;9.270;2022-08-19T15:49:45;22.60;95.00
802;DHT22;383;48.766;9.270;2022-08-19T15:52:12;22.60;95.50
802;DHT22;383;48.766;9.270;2022-08-19T15:54:40;22.60;95.70
802;DHT22;383;48.766;9.270;2022-08-19T15:57:07;22.60;95.10
802;DHT22;383;48.766;9.270;2022-08-19T15:59:51;22.50;94.80
802;DHT22;383;48.766;9.270;2022-08-19T16:02:35;22.50;95.20
802;DHT22;383;48.766;9.270;2022-08-19T16:05:21;22.60;95.30
802;DHT22;383;48.766;9.270;2022-08-19T16:08:06;22.60;93.70
802;DHT22;383;48.766;9.270;2022-08-19T16:10:35;22.50;94.70
802;DHT22;383;48.766;9.270;2022-08-19T16:13:02;22.50;94.60
802;DHT22;383;48.766;9.270;2022-08-19T16:15:31;22.60;95.20
802;DHT22;383;48.766;9.270;2022-08-19T16:17:58;22.60;94.90
802;DHT22;383;48.766;9.270;2022-08-19T16:20:27;22.60;95.20
802;DHT22;383;48.766;9.270;2022-08-19T16:22:55;22.70;94.70
802;DHT22;383;48.766;9.270;2022-08-19T16:25:23;22.80;94.40
802;DHT22;383;48.766;9.270;2022-08-19T16:27:53;22.90;93.90
802;DHT22;383;48.766;9.270;2022-08-19T16:30:20;22.80;93.40
802;DHT22;383;48.766;9.270;2022-08-19T16:32:46;22.90;93.50
802;DHT22;383;48.766;9.270;2022-08-19T16:35:13;22.80;93.10
802;DHT22;383;48.766;9.270;2022-08-19T16:37:40;22.80;93.10
802;DHT22;383;48.766;9.270;2022-08-19T16:40:07;22.80;93.40
802;DHT22;383;48.766;9.270;2022-08-19T16:42:34;22.80;93.60
802;DHT22;383;48.766;9.270;2022-08-19T16:45:03;22.90;92.80